sensor_id;sensor_type;location;lat;lon;timestamp;P1;durP1;ratioP1;P2;durP2;ratioP2
61531;SDS011;47397;48.194;11.632;2022-12-18T00:00:39;22.13;;;13.32;;
61531;SDS011;47397;48.194;11.632;2022-12-18T00:01:39;21.60;;;13.25;;
61531;SDS011;47397;48.194;11.632;2022-12-18T00:02:40;22.23;;;13.32;;
61531;SDS011;47397;48.194;11.632;2022-12-18T00:03:40;22.17;;;13.18;;
61531;SDS011;47397;48.194;11.632;2022-12-18T00:04:41;22.23;;;13.32;;
61531;SDS011;47397;48.194;11.632;2022-12-18T00:05:47;21.88;;;13.52;;
61531;SDS011;47397;48.194;11.632;2022-12-18T00:06:48;21.48;;;12.70;;
61531;SDS011;47397;48.194;11.632;2022-12-18T00:07:48;23.30;;;12.90;;
61531;SDS011;47397;48.194;11.632;2022-12-18T00:08:49;21.23;;;12.50;;
61531;SDS011;47397;48.194;11.632;2022-12-18T00:09:49;18.23;;;11.93;;
61531;SDS011;47397;48.194;11.632;2022-12-18T00:10:51;19.75;;;12.13;;
61531;SDS011;47397;48.194;11.632;2022-12-18T00:11:51;21.77;;;12.07;;
61531;SDS011;47397;48.194;11.632;2022-12-18T00:12:52;19.60;;;11.55;;
61531;SDS011;47397;48.194;11.632;2022-12-18T00:13:53;19.60;;;11.70;;
61531;SDS011;47397;48.194;11.632;2022-12-18T00:14:55;19.38;;;11.60;;
61531;SDS011;47397;48.194;11.632;2022-12-18T00:15:55;20.30;;;11.75;;
61531;SDS011;47397;48.194;11.632;2022-12-18T00:16:55;19.67;;;11.98;;
61531;SDS011;47397;48.194;11.632;2022-12-18T00:17:56;23.70;;;12.57;;
61531;SDS011;47397;48.194;11.632;2022-12-18T00:18:59;18.30;;;10.75;;
61531;SDS011;47397;48.194;11.632;2022-12-18T00:20:00;18.65;;;11.25;;
61531;SDS011;47397;48.194;11.632;2022-12-18T00:21:01;18.70;;;11.85;;
61531;SDS011;47397;48.194;11.632;2022-12-18T00:22:03;18.58;;;11.82;;
61531;SDS011;47397;48.194;11.632;2022-12-18T00:23:04;20.20;;;11.52;;
61531;SDS011;47397;48.194;11.632;2022-12-18T00:24:05;18.35;;;10.43;;
61531;SDS011;47397;48.194;11.632;2022-12-18T00:25:06;19.65;;;11.20;;
61531;SDS011;47397;48.194;11.632;2022-12-18T00:26:11;20.35;;;12.20;;
61531;SDS011;47397;48.194;11.632;2022-12-18T00:27:15;21.08;;;10.85;;
61531;SDS011;47397;48.194;11.632;2022-12-18T00:28:16;16.98;;;10.48;;
61531;SDS011;47397;48.194;11.632;2022-12-18T00:29:16;20.75;;;10.35;;
61531;SDS011;47397;48.194;11.632;2022-12-18T00:30:17;21.05;;;11.13;;
61531;SDS011;47397;48.194;11.632;2022-12-18T00:31:19;18.70;;;11.00;;
61531;SDS011;47397;48.194;11.632;2022-12-18T00:32:20;17.42;;;10.48;;
61531;SDS011;47397;48.194;11.632;2022-12-18T00:33:21;19.00;;;10.45;;
61531;SDS011;47397;48.194;11.632;2022-12-18T00:34:21;24.23;;;12.13;;
61531;SDS011;47397;48.194;11.632;2022-12-18T00:35:21;18.20;;;10.93;;
61531;SDS011;47397;48.194;11.632;2022-12-18T00:36:23;18.85;;;11.00;;
61531;SDS011;47397;48.194;11.632;2022-12-18T00:37:24;21.27;;;11.50;;
61531;SDS011;47397;48.194;11.632;2022-12-18T00:38:25;15.07;;;9.68;;
61531;SDS011;47397;48.194;11.632;2022-12-18T00:39:25;20.88;;;11.05;;
61531;SDS011;47397;48.194;11.632;2022-12-18T00:40:25;21.55;;;10.95;;
61531;SDS011;47397;48.194;11.632;2022-12-18T00:41:28;19.08;;;11.23;;
61531;SDS011;47397;48.194;11.632;2022-12-18T00:42:28;17.67;;;9.80;;
61531;SDS011;47397;48.194;11.632;2022-12-18T00:43:29;22.00;;;10.93;;
61531;SDS011;47397;48.194;11.632;2022-12-18T00:44:29;17.50;;;10.50;;
61531;SDS011;47397;48.194;11.632;2022-12-18T00:45:30;19.65;;;10.82;;
61531;SDS011;47397;48.194;11.632;2022-12-18T00:46:31;17.65;;;11.10;;
61531;SDS011;47397;48.194;11.632;2022-12-18T00:47:31;17.80;;;10.52;;
61531;SDS011;47397;48.194;11.632;2022-12-18T00:48:32;18.30;;;10.93;;
61531;SDS011;47397;48.194;11.632;2022-12-18T00:49:32;18.48;;;11.55;;
61531;SDS011;47397;48.194;11.632;2022-12-18T00:50:33;18.67;;;10.38;;
61531;SDS011;47397;48.194;11.632;2022-12-18T00:51:33;17.35;;;11.05;;
61531;SDS011;47397;48.194;11.632;2022-12-18T00:52:34;18.35;;;11.13;;
61531;SDS011;47397;48.194;11.632;2022-12-18T00:53:34;18.85;;;10.55;;
61531;SDS011;47397;48.194;11.632;2022-12-18T00:54:34;19.48;;;10.95;;
61531;SDS011;47397;48.194;11.632;2022-12-18T00:55:36;20.05;;;11.07;;
61531;SDS011;47397;48.194;11.632;2022-12-18T00:56:38;18.83;;;10.30;;
61531;SDS011;47397;48.194;11.632;2022-12-18T00:57:39;16.92;;;10.15;;
61531;SDS011;47397;48.194;11.632;2022-12-18T00:58:40;17.35;;;10.55;;
61531;SDS011;47397;48.194;11.632;2022-12-18T00:59:40;18.88;;;10.15;;
61531;SDS011;47397;48.194;11.632;2022-12-18T01:00:41;17.45;;;10.30;;
61531;SDS011;47397;48.194;11.632;2022-12-18T01:01:41;19.63;;;11.15;;
61531;SDS011;47397;48.194;11.632;2022-12-18T01:02:42;19.23;;;10.63;;
61531;SDS011;47397;48.194;11.632;2022-12-18T01:03:42;21.00;;;11.00;;
61531;SDS011;47397;48.194;11.632;2022-12-18T01:04:43;19.45;;;10.98;;
61531;SDS011;47397;48.194;11.632;2022-12-18T01:05:43;19.75;;;10.35;;
61531;SDS011;47397;48.194;11.632;2022-12-18T01:06:44;18.88;;;10.85;;
61531;SDS011;47397;48.194;11.632;2022-12-18T01:07:44;18.77;;;10.27;;
61531;SDS011;47397;48.194;11.632;2022-12-18T01:08:44;19.33;;;11.00;;
61531;SDS011;47397;48.194;11.632;2022-12-18T01:09:45;18.13;;;9.93;;
61531;SDS011;47397;48.194;11.632;2022-12-18T01:10:45;18.45;;;10.60;;
61531;SDS011;47397;48.194;11.632;2022-12-18T01:11:47;19.58;;;11.10;;
61531;SDS011;47397;48.194;11.632;2022-12-18T01:12:48;17.75;;;10.63;;
61531;SDS011;47397;48.194;11.632;2022-12-18T01:13:48;18.88;;;10.75;;
61531;SDS011;47397;48.194;11.632;2022-12-18T01:14:49;20.27;;;11.52;;
61531;SDS011;47397;48.194;11.632;2022-12-18T01:15:49;18.25;;;11.02;;
61531;SDS011;47397;48.194;11.632;2022-12-18T01:16:50;22.75;;;11.45;;
61531;SDS011;47397;48.194;11.632;2022-12-18T01:17:51;18.10;;;11.15;;
61531;SDS011;47397;48.194;11.632;2022-12-18T01:18:52;19.77;;;11.52;;
61531;SDS011;47397;48.194;11.632;2022-12-18T01:19:53;19.38;;;11.38;;
61531;SDS011;47397;48.194;11.632;2022-12-18T01:20:54;20.90;;;11.77;;
61531;SDS011;47397;48.194;11.632;2022-12-18T01:21:54;21.20;;;11.15;;
61531;SDS011;47397;48.194;11.632;2022-12-18T01:22:54;20.02;;;11.95;;
61531;SDS011;47397;48.194;11.632;2022-12-18T01:23:55;20.27;;;11.43;;
61531;SDS011;47397;48.194;11.632;2022-12-18T01:24:56;21.25;;;12.13;;
61531;SDS011;47397;48.194;11.632;2022-12-18T01:25:56;17.77;;;11.68;;
61531;SDS011;47397;48.194;11.632;2022-12-18T01:26:58;20.13;;;11.63;;
61531;SDS011;47397;48.194;11.632;2022-12-18T01:27:58;21.33;;;11.23;;
61531;SDS011;47397;48.194;11.632;2022-12-18T01:28:59;20.33;;;12.57;;
61531;SDS011;47397;48.194;11.632;2022-12-18T01:29:59;19.92;;;11.75;;
61531;SDS011;47397;48.194;11.632;2022-12-18T01:31:09;20.73;;;11.73;;
61531;SDS011;47397;48.194;11.632;2022-12-18T01:33:10;22.25;;;10.68;;
61531;SDS011;47397;48.194;11.632;2022-12-18T01:34:11;22.83;;;11.93;;
61531;SDS011;47397;48.194;11.632;2022-12-18T01:35:11;21.98;;;11.35;;
61531;SDS011;47397;48.194;11.632;2022-12-18T01:36:15;20.63;;;11.70;;
61531;SDS011;47397;48.194;11.632;2022-12-18T01:37:18;19.83;;;12.23;;
61531;SDS011;47397;48.194;11.632;2022-12-18T01:38:18;20.05;;;11.75;;
61531;SDS011;47397;48.194;11.632;2022-12-18T01:39:19;20.73;;;12.40;;
61531;SDS011;47397;48.194;11.632;2022-12-18T01:40:19;22.42;;;11.95;;
61531;SDS011;47397;48.194;11.632;2022-12-18T01:41:20;19.55;;;10.77;;
61531;SDS011;47397;48.194;11.632;2022-12-18T01:42:23;20.55;;;11.38;;
61531;SDS011;47397;48.194;11.632;2022-12-18T01:44:56;19.30;;;10.90;;
61531;SDS011;47397;48.194;11.632;2022-12-18T01:45:59;21.08;;;12.18;;
61531;SDS011;47397;48.194;11.632;2022-12-18T01:47:00;22.58;;;12.50;;
61531;SDS011;47397;48.194;11.632;2022-12-18T01:48:01;18.63;;;12.02;;
61531;SDS011;47397;48.194;11.632;2022-12-18T01:49:02;20.73;;;12.05;;
61531;SDS011;47397;48.194;11.632;2022-12-18T01:50:05;21.92;;;12.63;;
61531;SDS011;47397;48.194;11.632;2022-12-18T01:51:09;20.88;;;11.07;;
61531;SDS011;47397;48.194;11.632;2022-12-18T01:52:10;19.98;;;11.70;;
61531;SDS011;47397;48.194;11.632;2022-12-18T01:53:11;21.58;;;11.57;;
61531;SDS011;47397;48.194;11.632;2022-12-18T01:54:14;20.52;;;12.63;;
61531;SDS011;47397;48.194;11.632;2022-12-18T01:55:14;20.10;;;11.88;;
61531;SDS011;47397;48.194;11.632;2022-12-18T01:56:18;21.05;;;11.88;;
61531;SDS011;47397;48.194;11.632;2022-12-18T01:57:20;20.80;;;12.88;;
61531;SDS011;47397;48.194;11.632;2022-12-18T01:58:27;21.95;;;12.93;;
61531;SDS011;47397;48.194;11.632;2022-12-18T01:59:30;24.48;;;12.77;;
61531;SDS011;47397;48.194;11.632;2022-12-18T02:00:32;21.80;;;12.25;;
61531;SDS011;47397;48.194;11.632;2022-12-18T02:01:33;20.67;;;12.25;;
61531;SDS011;47397;48.194;11.632;2022-12-18T02:02:33;21.40;;;12.63;;
61531;SDS011;47397;48.194;11.632;2022-12-18T02:03:34;22.75;;;12.77;;
61531;SDS011;47397;48.194;11.632;2022-12-18T02:04:34;20.48;;;12.80;;
61531;SDS011;47397;48.194;11.632;2022-12-18T02:05:38;23.30;;;13.13;;
61531;SDS011;47397;48.194;11.632;2022-12-18T02:06:44;21.30;;;12.50;;
61531;SDS011;47397;48.194;11.632;2022-12-18T02:07:48;23.30;;;13.35;;
61531;SDS011;47397;48.194;11.632;2022-12-18T02:09:02;23.30;;;12.40;;
61531;SDS011;47397;48.194;11.632;2022-12-18T02:10:12;24.00;;;14.30;;
61531;SDS011;47397;48.194;11.632;2022-12-18T02:11:18;23.00;;;13.25;;
61531;SDS011;47397;48.194;11.632;2022-12-18T02:12:30;24.17;;;13.00;;
61531;SDS011;47397;48.194;11.632;2022-12-18T02:13:41;23.70;;;12.63;;
61531;SDS011;47397;48.194;11.632;2022-12-18T02:14:48;23.35;;;13.13;;
61531;SDS011;47397;48.194;11.632;2022-12-18T02:15:56;20.88;;;11.30;;
61531;SDS011;47397;48.194;11.632;2022-12-18T02:17:01;23.63;;;13.95;;
61531;SDS011;47397;48.194;11.632;2022-12-18T02:18:05;22.80;;;12.30;;
61531;SDS011;47397;48.194;11.632;2022-12-18T02:19:12;22.92;;;12.50;;
61531;SDS011;47397;48.194;11.632;2022-12-18T02:20:20;22.33;;;12.18;;
61531;SDS011;47397;48.194;11.632;2022-12-18T02:21:27;23.02;;;12.98;;
61531;SDS011;47397;48.194;11.632;2022-12-18T02:22:37;23.25;;;13.45;;
61531;SDS011;47397;48.194;11.632;2022-12-18T02:23:47;24.27;;;12.80;;
61531;SDS011;47397;48.194;11.632;2022-12-18T02:24:58;22.88;;;13.05;;
61531;SDS011;47397;48.194;11.632;2022-12-18T02:26:07;24.65;;;12.90;;
61531;SDS011;47397;48.194;11.632;2022-12-18T02:27:14;22.73;;;12.57;;
61531;SDS011;47397;48.194;11.632;2022-12-18T02:28:15;24.02;;;12.68;;
61531;SDS011;47397;48.194;11.632;2022-12-18T02:29:20;22.33;;;12.85;;
61531;SDS011;47397;48.194;11.632;2022-12-18T02:30:24;24.42;;;13.38;;
61531;SDS011;47397;48.194;11.632;2022-12-18T02:31:27;23.98;;;13.63;;
61531;SDS011;47397;48.194;11.632;2022-12-18T02:32:31;22.00;;;12.52;;
61531;SDS011;47397;48.194;11.632;2022-12-18T02:33:34;20.35;;;12.77;;
61531;SDS011;47397;48.194;11.632;2022-12-18T02:34:37;20.67;;;12.60;;
61531;SDS011;47397;48.194;11.632;2022-12-18T02:35:39;22.02;;;13.75;;
61531;SDS011;47397;48.194;11.632;2022-12-18T02:36:41;21.55;;;13.23;;
61531;SDS011;47397;48.194;11.632;2022-12-18T02:37:44;23.88;;;13.05;;
61531;SDS011;47397;48.194;11.632;2022-12-18T02:38:46;21.98;;;13.05;;
61531;SDS011;47397;48.194;11.632;2022-12-18T02:39:48;25.88;;;13.70;;
61531;SDS011;47397;48.194;11.632;2022-12-18T02:40:49;22.80;;;13.38;;
61531;SDS011;47397;48.194;11.632;2022-12-18T02:41:53;22.63;;;13.18;;
61531;SDS011;47397;48.194;11.632;2022-12-18T02:42:53;23.63;;;13.32;;
61531;SDS011;47397;48.194;11.632;2022-12-18T02:43:55;23.13;;;13.18;;
61531;SDS011;47397;48.194;11.632;2022-12-18T02:44:56;21.13;;;12.55;;
61531;SDS011;47397;48.194;11.632;2022-12-18T02:45:57;23.13;;;13.38;;
61531;SDS011;47397;48.194;11.632;2022-12-18T02:46:59;22.73;;;12.88;;
61531;SDS011;47397;48.194;11.632;2022-12-18T02:48:00;21.73;;;13.00;;
61531;SDS011;47397;48.194;11.632;2022-12-18T02:49:11;20.50;;;12.90;;
61531;SDS011;47397;48.194;11.632;2022-12-18T02:50:21;26.85;;;12.75;;
61531;SDS011;47397;48.194;11.632;2022-12-18T02:51:28;22.17;;;12.65;;
61531;SDS011;47397;48.194;11.632;2022-12-18T02:52:34;21.65;;;12.98;;
61531;SDS011;47397;48.194;11.632;2022-12-18T02:53:39;27.02;;;13.60;;
61531;SDS011;47397;48.194;11.632;2022-12-18T02:54:49;21.80;;;11.85;;
61531;SDS011;47397;48.194;11.632;2022-12-18T02:55:59;20.67;;;12.32;;
61531;SDS011;47397;48.194;11.632;2022-12-18T02:57:08;22.88;;;12.80;;
61531;SDS011;47397;48.194;11.632;2022-12-18T02:59:19;20.52;;;11.85;;
61531;SDS011;47397;48.194;11.632;2022-12-18T03:00:24;24.55;;;11.93;;
61531;SDS011;47397;48.194;11.632;2022-12-18T03:01:31;21.20;;;11.77;;
61531;SDS011;47397;48.194;11.632;2022-12-18T03:02:39;23.08;;;12.73;;
61531;SDS011;47397;48.194;11.632;2022-12-18T03:03:46;25.05;;;12.80;;
61531;SDS011;47397;48.194;11.632;2022-12-18T03:04:52;20.77;;;12.77;;
61531;SDS011;47397;48.194;11.632;2022-12-18T03:05:58;25.02;;;13.70;;
61531;SDS011;47397;48.194;11.632;2022-12-18T03:07:04;21.75;;;11.90;;
61531;SDS011;47397;48.194;11.632;2022-12-18T03:08:10;22.58;;;13.88;;
61531;SDS011;47397;48.194;11.632;2022-12-18T03:09:14;21.73;;;12.70;;
61531;SDS011;47397;48.194;11.632;2022-12-18T03:10:20;21.70;;;11.85;;
61531;SDS011;47397;48.194;11.632;2022-12-18T03:11:28;23.10;;;13.05;;
61531;SDS011;47397;48.194;11.632;2022-12-18T03:12:35;23.80;;;13.75;;
61531;SDS011;47397;48.194;11.632;2022-12-18T03:13:40;24.33;;;12.73;;
61531;SDS011;47397;48.194;11.632;2022-12-18T03:14:45;22.20;;;13.35;;
61531;SDS011;47397;48.194;11.632;2022-12-18T03:15:50;23.85;;;13.13;;
61531;SDS011;47397;48.194;11.632;2022-12-18T03:16:55;21.00;;;12.52;;
61531;SDS011;47397;48.194;11.632;2022-12-18T03:18:00;22.65;;;12.45;;
61531;SDS011;47397;48.194;11.632;2022-12-18T03:19:06;23.83;;;12.68;;
61531;SDS011;47397;48.194;11.632;2022-12-18T03:20:12;22.77;;;12.73;;
61531;SDS011;47397;48.194;11.632;2022-12-18T03:21:15;23.23;;;12.70;;
61531;SDS011;47397;48.194;11.632;2022-12-18T03:22:18;23.88;;;12.75;;
61531;SDS011;47397;48.194;11.632;2022-12-18T03:23:21;22.05;;;11.98;;
61531;SDS011;47397;48.194;11.632;2022-12-18T03:24:25;23.95;;;13.95;;
61531;SDS011;47397;48.194;11.632;2022-12-18T03:25:27;24.83;;;12.73;;
61531;SDS011;47397;48.194;11.632;2022-12-18T03:26:30;21.40;;;12.55;;
61531;SDS011;47397;48.194;11.632;2022-12-18T03:27:31;22.55;;;12.82;;
61531;SDS011;47397;48.194;11.632;2022-12-18T03:28:36;22.17;;;12.75;;
61531;SDS011;47397;48.194;11.632;2022-12-18T03:29:42;23.13;;;12.75;;
61531;SDS011;47397;48.194;11.632;2022-12-18T03:30:45;22.77;;;11.77;;
61531;SDS011;47397;48.194;11.632;2022-12-18T03:31:51;23.45;;;12.77;;
61531;SDS011;47397;48.194;11.632;2022-12-18T03:32:58;22.52;;;13.43;;
61531;SDS011;47397;48.194;11.632;2022-12-18T03:34:05;19.83;;;12.15;;
61531;SDS011;47397;48.194;11.632;2022-12-18T03:35:11;22.63;;;12.05;;
61531;SDS011;47397;48.194;11.632;2022-12-18T03:36:15;22.25;;;13.00;;
61531;SDS011;47397;48.194;11.632;2022-12-18T03:37:15;23.17;;;13.40;;
61531;SDS011;47397;48.194;11.632;2022-12-18T03:38:16;22.45;;;13.18;;
61531;SDS011;47397;48.194;11.632;2022-12-18T03:39:17;19.95;;;12.25;;
61531;SDS011;47397;48.194;11.632;2022-12-18T03:40:17;20.55;;;11.75;;
61531;SDS011;47397;48.194;11.632;2022-12-18T03:41:29;23.23;;;12.40;;
61531;SDS011;47397;48.194;11.632;2022-12-18T03:42:33;22.48;;;12.27;;
61531;SDS011;47397;48.194;11.632;2022-12-18T03:43:44;24.05;;;12.80;;
61531;SDS011;47397;48.194;11.632;2022-12-18T03:44:52;21.02;;;11.50;;
61531;SDS011;47397;48.194;11.632;2022-12-18T03:46:00;23.75;;;11.30;;
61531;SDS011;47397;48.194;11.632;2022-12-18T03:47:06;21.75;;;11.75;;
61531;SDS011;47397;48.194;11.632;2022-12-18T03:48:12;21.02;;;12.32;;
61531;SDS011;47397;48.194;11.632;2022-12-18T03:49:18;23.27;;;12.10;;
61531;SDS011;47397;48.194;11.632;2022-12-18T03:50:26;23.27;;;11.93;;
61531;SDS011;47397;48.194;11.632;2022-12-18T03:51:36;21.80;;;12.23;;
61531;SDS011;47397;48.194;11.632;2022-12-18T03:52:41;20.95;;;11.77;;
61531;SDS011;47397;48.194;11.632;2022-12-18T03:53:50;23.27;;;12.57;;
61531;SDS011;47397;48.194;11.632;2022-12-18T03:54:54;22.58;;;11.85;;
61531;SDS011;47397;48.194;11.632;2022-12-18T03:55:57;20.10;;;11.95;;
61531;SDS011;47397;48.194;11.632;2022-12-18T03:57:01;22.85;;;12.10;;
61531;SDS011;47397;48.194;11.632;2022-12-18T03:58:08;19.42;;;11.13;;
61531;SDS011;47397;48.194;11.632;2022-12-18T03:59:11;20.60;;;11.20;;
61531;SDS011;47397;48.194;11.632;2022-12-18T04:00:14;21.67;;;12.30;;
61531;SDS011;47397;48.194;11.632;2022-12-18T04:01:17;21.27;;;11.95;;
61531;SDS011;47397;48.194;11.632;2022-12-18T04:02:23;18.92;;;11.02;;
61531;SDS011;47397;48.194;11.632;2022-12-18T04:03:24;19.55;;;11.15;;
61531;SDS011;47397;48.194;11.632;2022-12-18T04:04:27;20.52;;;11.77;;
61531;SDS011;47397;48.194;11.632;2022-12-18T04:05:29;21.05;;;11.85;;
61531;SDS011;47397;48.194;11.632;2022-12-18T04:06:30;20.58;;;11.00;;
61531;SDS011;47397;48.194;11.632;2022-12-18T04:07:35;20.85;;;12.27;;
61531;SDS011;47397;48.194;11.632;2022-12-18T04:08:36;21.48;;;12.20;;
61531;SDS011;47397;48.194;11.632;2022-12-18T04:09:37;20.67;;;11.20;;
61531;SDS011;47397;48.194;11.632;2022-12-18T04:10:39;19.85;;;11.30;;
61531;SDS011;47397;48.194;11.632;2022-12-18T04:11:40;19.30;;;11.15;;
61531;SDS011;47397;48.194;11.632;2022-12-18T04:12:41;23.75;;;12.13;;
61531;SDS011;47397;48.194;11.632;2022-12-18T04:13:43;21.33;;;11.98;;
61531;SDS011;47397;48.194;11.632;2022-12-18T04:14:44;19.50;;;11.10;;
61531;SDS011;47397;48.194;11.632;2022-12-18T04:15:44;21.00;;;11.00;;
61531;SDS011;47397;48.194;11.632;2022-12-18T04:16:45;18.75;;;10.45;;
61531;SDS011;47397;48.194;11.632;2022-12-18T04:17:47;19.60;;;11.55;;
61531;SDS011;47397;48.194;11.632;2022-12-18T04:18:48;18.38;;;11.15;;
61531;SDS011;47397;48.194;11.632;2022-12-18T04:19:49;18.73;;;10.93;;
61531;SDS011;47397;48.194;11.632;2022-12-18T04:20:49;22.27;;;11.48;;
61531;SDS011;47397;48.194;11.632;2022-12-18T04:21:50;20.08;;;11.25;;
61531;SDS011;47397;48.194;11.632;2022-12-18T04:22:50;20.23;;;10.93;;
61531;SDS011;47397;48.194;11.632;2022-12-18T04:23:50;20.27;;;11.05;;
61531;SDS011;47397;48.194;11.632;2022-12-18T04:24:51;19.98;;;10.98;;
61531;SDS011;47397;48.194;11.632;2022-12-18T04:25:51;20.10;;;11.18;;
61531;SDS011;47397;48.194;11.632;2022-12-18T04:26:52;20.83;;;11.10;;
61531;SDS011;47397;48.194;11.632;2022-12-18T04:27:52;19.75;;;11.10;;
61531;SDS011;47397;48.194;11.632;2022-12-18T04:28:54;20.02;;;10.63;;
61531;SDS011;47397;48.194;11.632;2022-12-18T04:29:54;20.42;;;11.57;;
61531;SDS011;47397;48.194;11.632;2022-12-18T04:30:55;20.92;;;11.27;;
61531;SDS011;47397;48.194;11.632;2022-12-18T04:31:55;24.48;;;12.13;;
61531;SDS011;47397;48.194;11.632;2022-12-18T04:32:55;18.85;;;10.55;;
61531;SDS011;47397;48.194;11.632;2022-12-18T04:33:56;17.38;;;10.85;;
61531;SDS011;47397;48.194;11.632;2022-12-18T04:34:56;20.00;;;11.30;;
61531;SDS011;47397;48.194;11.632;2022-12-18T04:35:57;19.10;;;10.30;;
61531;SDS011;47397;48.194;11.632;2022-12-18T04:36:57;18.83;;;10.73;;
61531;SDS011;47397;48.194;11.632;2022-12-18T04:37:58;21.35;;;11.30;;
61531;SDS011;47397;48.194;11.632;2022-12-18T04:38:58;21.85;;;10.75;;
61531;SDS011;47397;48.194;11.632;2022-12-18T04:39:58;18.90;;;10.55;;
61531;SDS011;47397;48.194;11.632;2022-12-18T04:40:59;20.35;;;11.60;;
61531;SDS011;47397;48.194;11.632;2022-12-18T04:42:00;20.00;;;11.27;;
61531;SDS011;47397;48.194;11.632;2022-12-18T04:43:00;17.75;;;10.57;;
61531;SDS011;47397;48.194;11.632;2022-12-18T04:44:02;20.70;;;11.52;;
61531;SDS011;47397;48.194;11.632;2022-12-18T04:45:03;17.30;;;10.77;;
61531;SDS011;47397;48.194;11.632;2022-12-18T04:46:05;19.52;;;11.68;;
61531;SDS011;47397;48.194;11.632;2022-12-18T04:47:06;18.17;;;11.07;;
61531;SDS011;47397;48.194;11.632;2022-12-18T04:48:07;19.45;;;11.45;;
61531;SDS011;47397;48.194;11.632;2022-12-18T04:49:07;19.25;;;11.05;;
61531;SDS011;47397;48.194;11.632;2022-12-18T04:50:08;22.02;;;11.32;;
61531;SDS011;47397;48.194;11.632;2022-12-18T04:51:08;18.48;;;10.15;;
61531;SDS011;47397;48.194;11.632;2022-12-18T04:52:09;18.10;;;10.23;;
61531;SDS011;47397;48.194;11.632;2022-12-18T04:53:09;19.20;;;11.13;;
61531;SDS011;47397;48.194;11.632;2022-12-18T04:54:09;20.02;;;10.80;;
61531;SDS011;47397;48.194;11.632;2022-12-18T04:55:10;16.38;;;10.43;;
61531;SDS011;47397;48.194;11.632;2022-12-18T04:56:11;18.98;;;9.90;;
61531;SDS011;47397;48.194;11.632;2022-12-18T04:57:12;19.35;;;10.00;;
61531;SDS011;47397;48.194;11.632;2022-12-18T04:58:13;16.75;;;10.93;;
61531;SDS011;47397;48.194;11.632;2022-12-18T04:59:15;18.58;;;9.85;;
61531;SDS011;47397;48.194;11.632;2022-12-18T05:00:15;17.60;;;10.68;;
61531;SDS011;47397;48.194;11.632;2022-12-18T05:01:16;18.77;;;10.23;;
61531;SDS011;47397;48.194;11.632;2022-12-18T05:02:18;16.85;;;9.18;;
61531;SDS011;47397;48.194;11.632;2022-12-18T05:03:18;17.23;;;10.32;;
61531;SDS011;47397;48.194;11.632;2022-12-18T05:04:18;17.70;;;10.18;;
61531;SDS011;47397;48.194;11.632;2022-12-18T05:05:19;17.58;;;10.07;;
61531;SDS011;47397;48.194;11.632;2022-12-18T05:06:19;18.65;;;10.70;;
61531;SDS011;47397;48.194;11.632;2022-12-18T05:07:19;18.05;;;10.10;;
61531;SDS011;47397;48.194;11.632;2022-12-18T05:08:20;18.25;;;10.27;;
61531;SDS011;47397;48.194;11.632;2022-12-18T05:09:20;14.88;;;9.43;;
61531;SDS011;47397;48.194;11.632;2022-12-18T05:10:21;16.17;;;10.07;;
61531;SDS011;47397;48.194;11.632;2022-12-18T05:11:21;16.92;;;9.93;;
61531;SDS011;47397;48.194;11.632;2022-12-18T05:12:25;19.20;;;10.68;;
61531;SDS011;47397;48.194;11.632;2022-12-18T05:13:26;18.73;;;11.20;;
61531;SDS011;47397;48.194;11.632;2022-12-18T05:14:28;17.85;;;9.93;;
61531;SDS011;47397;48.194;11.632;2022-12-18T05:15:28;20.85;;;10.65;;
61531;SDS011;47397;48.194;11.632;2022-12-18T05:16:29;17.23;;;10.23;;
61531;SDS011;47397;48.194;11.632;2022-12-18T05:17:29;16.00;;;9.65;;
61531;SDS011;47397;48.194;11.632;2022-12-18T05:18:30;18.70;;;10.38;;
61531;SDS011;47397;48.194;11.632;2022-12-18T05:19:30;19.40;;;10.32;;
61531;SDS011;47397;48.194;11.632;2022-12-18T05:20:31;16.90;;;10.32;;
61531;SDS011;47397;48.194;11.632;2022-12-18T05:21:32;20.42;;;10.43;;
61531;SDS011;47397;48.194;11.632;2022-12-18T05:22:32;16.77;;;9.80;;
61531;SDS011;47397;48.194;11.632;2022-12-18T05:23:35;18.65;;;10.52;;
61531;SDS011;47397;48.194;11.632;2022-12-18T05:24:36;16.08;;;10.00;;
61531;SDS011;47397;48.194;11.632;2022-12-18T05:25:36;16.00;;;9.95;;
61531;SDS011;47397;48.194;11.632;2022-12-18T05:26:37;17.80;;;9.73;;
61531;SDS011;47397;48.194;11.632;2022-12-18T05:27:37;15.95;;;9.52;;
61531;SDS011;47397;48.194;11.632;2022-12-18T05:28:38;16.67;;;9.65;;
61531;SDS011;47397;48.194;11.632;2022-12-18T05:29:39;17.48;;;10.18;;
61531;SDS011;47397;48.194;11.632;2022-12-18T05:30:44;20.17;;;10.65;;
61531;SDS011;47397;48.194;11.632;2022-12-18T05:31:47;18.48;;;10.68;;
61531;SDS011;47397;48.194;11.632;2022-12-18T05:32:48;18.92;;;10.57;;
61531;SDS011;47397;48.194;11.632;2022-12-18T05:33:48;16.33;;;10.32;;
61531;SDS011;47397;48.194;11.632;2022-12-18T05:34:49;17.70;;;10.68;;
61531;SDS011;47397;48.194;11.632;2022-12-18T05:35:49;19.98;;;10.25;;
61531;SDS011;47397;48.194;11.632;2022-12-18T05:36:50;18.33;;;10.45;;
61531;SDS011;47397;48.194;11.632;2022-12-18T05:37:50;18.38;;;10.98;;
61531;SDS011;47397;48.194;11.632;2022-12-18T05:38:51;17.38;;;10.45;;
61531;SDS011;47397;48.194;11.632;2022-12-18T05:39:51;19.20;;;10.65;;
61531;SDS011;47397;48.194;11.632;2022-12-18T05:40:52;18.08;;;10.43;;
61531;SDS011;47397;48.194;11.632;2022-12-18T05:41:53;18.23;;;10.50;;
61531;SDS011;47397;48.194;11.632;2022-12-18T05:42:53;17.77;;;9.52;;
61531;SDS011;47397;48.194;11.632;2022-12-18T05:43:54;18.88;;;10.80;;
61531;SDS011;47397;48.194;11.632;2022-12-18T05:44:56;18.98;;;10.57;;
61531;SDS011;47397;48.194;11.632;2022-12-18T05:45:56;17.13;;;9.82;;
61531;SDS011;47397;48.194;11.632;2022-12-18T05:46:56;19.30;;;9.63;;
61531;SDS011;47397;48.194;11.632;2022-12-18T05:47:57;19.40;;;10.90;;
61531;SDS011;47397;48.194;11.632;2022-12-18T05:48:59;19.27;;;9.90;;
61531;SDS011;47397;48.194;11.632;2022-12-18T05:49:59;17.70;;;10.00;;
61531;SDS011;47397;48.194;11.632;2022-12-18T05:51:03;18.52;;;10.23;;
61531;SDS011;47397;48.194;11.632;2022-12-18T05:52:05;17.98;;;10.38;;
61531;SDS011;47397;48.194;11.632;2022-12-18T05:53:05;18.05;;;10.30;;
61531;SDS011;47397;48.194;11.632;2022-12-18T05:54:06;17.95;;;10.68;;
61531;SDS011;47397;48.194;11.632;2022-12-18T05:55:07;16.52;;;10.10;;
61531;SDS011;47397;48.194;11.632;2022-12-18T05:56:08;16.42;;;9.90;;
61531;SDS011;47397;48.194;11.632;2022-12-18T05:57:09;17.63;;;10.23;;
61531;SDS011;47397;48.194;11.632;2022-12-18T05:58:10;18.30;;;10.15;;
61531;SDS011;47397;48.194;11.632;2022-12-18T05:59:12;16.27;;;9.57;;
61531;SDS011;47397;48.194;11.632;2022-12-18T06:00:15;17.00;;;9.82;;
61531;SDS011;47397;48.194;11.632;2022-12-18T06:01:16;16.67;;;9.38;;
61531;SDS011;47397;48.194;11.632;2022-12-18T06:02:18;18.80;;;10.98;;
61531;SDS011;47397;48.194;11.632;2022-12-18T06:03:19;19.00;;;10.23;;